| time (UTC) | temp F | wind direction | speed MPH | gust MPH | rain 1hr in | rain 24hr in | rain mn in | humidity % | barometer mb |
| 20260508154507 | 70 | 0 | 0.0 | 0.0 | 0.00 | 0.00 | 0.00 | 48 | 1016.2 |
| 20260508154005 | 69 | 270 | 0.0 | 0.0 | 0.00 | 0.00 | 0.00 | 46 | 1016.2 |
| 20260508153503 | 68 | 270 | 0.0 | 1.0 | 0.00 | 0.00 | 0.00 | 51 | 1016.2 |
| 20260508152501 | 67 | 135 | 0.0 | 1.0 | 0.00 | 0.00 | 0.00 | 49 | 1015.9 |
| 20260508151959 | 67 | 68 | 0.0 | 1.0 | 0.00 | 0.00 | 0.00 | 50 | 1016.2 |
| 20260508151458 | 68 | 0 | 0.0 | 0.0 | 0.00 | 0.00 | 0.00 | 55 | 1016.2 |
| 20260508150455 | 66 | 23 | 1.0 | 2.0 | 0.00 | 0.00 | 0.00 | 51 | 1016.2 |
| 20260508145954 | 66 | 68 | 0.0 | 2.0 | 0.00 | 0.00 | 0.00 | 54 | 1016.2 |
| 20260508145452 | 65 | 135 | 0.0 | 2.0 | 0.00 | 0.00 | 0.00 | 52 | 1016.2 |
| 20260508144950 | 66 | 23 | 3.0 | 5.0 | 0.00 | 0.00 | 0.00 | 55 | 1016.2 |
| 20260508144449 | 66 | 68 | 1.0 | 2.0 | 0.00 | 0.00 | 0.00 | 56 | 1016.2 |
| 20260508143947 | 67 | 23 | 0.0 | 1.0 | 0.00 | 0.00 | 0.00 | 51 | 1016.2 |
| 20260508143446 | 66 | 23 | 5.0 | 7.0 | 0.00 | 0.00 | 0.00 | 50 | 1016.2 |
| 20260508142944 | 66 | 338 | 0.0 | 1.0 | 0.00 | 0.00 | 0.00 | 57 | 1016.2 |
| 20260508142442 | 65 | 45 | 0.0 | 0.0 | 0.00 | 0.00 | 0.00 | 59 | 1016.2 |
| 20260508141940 | 65 | 45 | 0.0 | 0.0 | 0.00 | 0.00 | 0.00 | 54 | 1016.2 |
| 20260508141439 | 66 | 293 | 0.0 | 0.0 | 0.00 | 0.00 | 0.00 | 60 | 1016.2 |
| 20260508140937 | 66 | 23 | 0.0 | 0.0 | 0.00 | 0.00 | 0.00 | 64 | 1016.2 |
| 20260508140435 | 64 | 45 | 0.0 | 0.0 | 0.00 | 0.00 | 0.00 | 61 | 1016.2 |
| 20260508135934 | 65 | 248 | 0.0 | 0.0 | 0.00 | 0.00 | 0.00 | 64 | 1016.2 |
| 20260508134931 | 64 | 338 | 0.0 | 0.0 | 0.00 | 0.00 | 0.00 | 66 | 1016.2 |
| 20260508134429 | 65 | 293 | 0.0 | 0.0 | 0.00 | 0.00 | 0.00 | 66 | 1016.2 |
| 20260508133928 | 64 | 248 | 0.0 | 0.0 | 0.00 | 0.00 | 0.00 | 72 | 1016.2 |
| 20260508133426 | 62 | 23 | 5.0 | 5.0 | 0.00 | 0.00 | 0.00 | 68 | 1016.2 |
| 20260508132924 | 63 | 0 | 0.0 | 0.0 | 0.00 | 0.00 | 0.00 | 69 | 1016.2 |
| 20260508132423 | 62 | 23 | 1.0 | 2.0 | 0.00 | 0.00 | 0.00 | 70 | 1015.9 |
| 20260508131921 | 62 | 338 | 1.0 | 2.0 | 0.00 | 0.00 | 0.00 | 73 | 1016.2 |
| 20260508131419 | 61 | 338 | 5.0 | 6.0 | 0.00 | 0.00 | 0.00 | 74 | 1015.9 |
| 20260508130917 | 61 | 23 | 0.0 | 0.0 | 0.00 | 0.00 | 0.00 | 78 | 1015.9 |
| 20260508130416 | 60 | 338 | 0.0 | 0.0 | 0.00 | 0.00 | 0.00 | 81 | 1016.2 |
| 20260508125413 | 58 | 248 | 0.0 | 1.0 | 0.00 | 0.00 | 0.00 | 84 | 1016.2 |
| 20260508124912 | 58 | 45 | 0.0 | 1.0 | 0.00 | 0.00 | 0.00 | 85 | 1015.9 |
| 20260508124410 | 57 | 68 | 0.0 | 0.0 | 0.00 | 0.00 | 0.00 | 87 | 1015.9 |
| 20260508123908 | 58 | 0 | 0.0 | 1.0 | 0.00 | 0.00 | 0.00 | 88 | 1015.9 |
| 20260508123406 | 57 | 338 | 0.0 | 1.0 | 0.00 | 0.00 | 0.00 | 90 | 1015.5 |
| 20260508122905 | 57 | 45 | 1.0 | 2.0 | 0.00 | 0.00 | 0.00 | 92 | 1015.5 |
| 20260508122403 | 57 | 0 | 0.0 | 0.0 | 0.00 | 0.00 | 0.00 | 94 | 1015.5 |
| 20260508121901 | 57 | 45 | 0.0 | 0.0 | 0.00 | 0.00 | 0.00 | 96 | 1015.5 |
| 20260508121359 | 56 | 315 | 0.0 | 0.0 | 0.00 | 0.00 | 0.00 | 97 | 1015.5 |
| 20260508120858 | 55 | 315 | 0.0 | 0.0 | 0.00 | 0.00 | 0.00 | 97 | 1015.5 |
| 20260508120356 | 53 | 45 | 0.0 | 0.0 | 0.00 | 0.00 | 0.00 | 97 | 1015.5 |
| 20260508115854 | 53 | 45 | 1.0 | 1.0 | 0.00 | 0.00 | 0.00 | 98 | 1015.2 |
| 20260508115352 | 53 | 45 | 0.0 | 0.0 | 0.00 | 0.00 | 0.00 | 98 | 1015.5 |
| 20260508114851 | 53 | 68 | 0.0 | 0.0 | 0.00 | 0.00 | 0.00 | 98 | 1015.2 |
| 20260508114349 | 52 | 0 | 0.0 | 0.0 | 0.00 | 0.00 | 0.00 | 98 | 1015.2 |
| 20260508113847 | 53 | 0 | 0.0 | 0.0 | 0.00 | 0.00 | 0.00 | 99 | 1014.9 |
| 20260508113346 | 52 | 23 | 0.0 | 0.0 | 0.00 | 0.00 | 0.00 | 99 | 1015.2 |
| 20260508112844 | 51 | 270 | 0.0 | 0.0 | 0.00 | 0.00 | 0.00 | 98 | 1014.9 |
| 20260508112342 | 52 | 158 | 0.0 | 0.0 | 0.00 | 0.00 | 0.00 | 99 | 1014.9 |
| 20260508111841 | 51 | 248 | 0.0 | 0.0 | 0.00 | 0.00 | 0.00 | 99 | 1014.5 |
| 20260508111339 | 52 | 315 | 0.0 | 0.0 | 0.00 | 0.00 | 0.00 | 99 | 1014.5 |
| 20260508105836 | 47 | 293 | 0.0 | 0.0 | 0.00 | 0.00 | 0.00 | 99 | 1014.5 |
| 20260508105334 | 47 | 270 | 0.0 | 0.0 | 0.00 | 0.00 | 0.00 | 99 | 1014.5 |
| 20260508103831 | 46 | 293 | 0.0 | 0.0 | 0.00 | 0.00 | 0.00 | 98 | 1014.2 |
| 20260508103329 | 46 | 293 | 0.0 | 0.0 | 0.00 | 0.00 | 0.00 | 98 | 1014.2 |
| 20260508102828 | 46 | 293 | 0.0 | 0.0 | 0.00 | 0.00 | 0.00 | 98 | 1013.8 |
| 20260508102327 | 47 | 293 | 0.0 | 0.0 | 0.00 | 0.00 | 0.00 | 98 | 1013.8 |
| 20260508101324 | 47 | 338 | 0.0 | 0.0 | 0.00 | 0.00 | 0.00 | 98 | 1013.5 |
| 20260508100822 | 47 | 0 | 0.0 | 0.0 | 0.00 | 0.00 | 0.00 | 98 | 1013.5 |
| 20260508100321 | 47 | 338 | 0.0 | 0.0 | 0.00 | 0.00 | 0.00 | 98 | 1013.5 |
| 20260508095819 | 46 | 315 | 0.0 | 0.0 | 0.00 | 0.00 | 0.00 | 98 | 1013.5 |
| 20260508095317 | 47 | 293 | 0.0 | 0.0 | 0.00 | 0.00 | 0.00 | 98 | 1013.5 |
| 20260508094816 | 47 | 315 | 0.0 | 0.0 | 0.00 | 0.00 | 0.00 | 98 | 1013.5 |
| 20260508094314 | 47 | 293 | 0.0 | 0.0 | 0.00 | 0.00 | 0.00 | 98 | 1013.5 |
| 20260508092811 | 47 | 23 | 0.0 | 0.0 | 0.00 | 0.00 | 0.00 | 98 | 1013.2 |
| 20260508092313 | 47 | 315 | 0.0 | 0.0 | 0.00 | 0.00 | 0.00 | 98 | 1013.5 |
| 20260508091307 | 47 | 338 | 0.0 | 0.0 | 0.00 | 0.00 | 0.00 | 98 | 1013.2 |
| 20260508090805 | 47 | 338 | 0.0 | 0.0 | 0.00 | 0.00 | 0.00 | 98 | 1013.2 |
| 20260508090304 | 47 | 338 | 0.0 | 0.0 | 0.00 | 0.00 | 0.00 | 98 | 1013.2 |
| 20260508085802 | 47 | 338 | 0.0 | 0.0 | 0.00 | 0.00 | 0.00 | 98 | 1013.2 |
| 20260508085300 | 48 | 338 | 0.0 | 0.0 | 0.00 | 0.00 | 0.00 | 98 | 1013.2 |
| 20260508084759 | 48 | 338 | 0.0 | 0.0 | 0.00 | 0.00 | 0.00 | 98 | 1013.2 |
| 20260508083757 | 48 | 315 | 0.0 | 0.0 | 0.00 | 0.00 | 0.00 | 98 | 1013.2 |
| 20260508083255 | 48 | 0 | 0.0 | 0.0 | 0.00 | 0.00 | 0.00 | 98 | 1013.2 |
| 20260508082754 | 48 | 338 | 0.0 | 0.0 | 0.00 | 0.00 | 0.00 | 98 | 1012.8 |
| 20260508082252 | 48 | 293 | 0.0 | 0.0 | 0.00 | 0.00 | 0.00 | 98 | 1012.8 |
| 20260508081750 | 48 | 338 | 0.0 | 0.0 | 0.00 | 0.00 | 0.00 | 98 | 1012.8 |
| 20260508081248 | 48 | 338 | 0.0 | 0.0 | 0.00 | 0.00 | 0.00 | 98 | 1012.8 |
| 20260508080746 | 48 | 338 | 0.0 | 0.0 | 0.00 | 0.00 | 0.00 | 98 | 1012.8 |
| 20260508080244 | 48 | 315 | 0.0 | 0.0 | 0.00 | 0.00 | 0.00 | 98 | 1012.8 |
| 20260508075743 | 49 | 338 | 0.0 | 0.0 | 0.00 | 0.00 | 0.00 | 98 | 1012.8 |
| 20260508075241 | 49 | 338 | 0.0 | 0.0 | 0.00 | 0.00 | 0.00 | 98 | 1012.8 |
| 20260508074739 | 49 | 338 | 0.0 | 0.0 | 0.00 | 0.00 | 0.00 | 98 | 1012.8 |
| 20260508074237 | 49 | 293 | 0.0 | 0.0 | 0.00 | 0.00 | 0.00 | 98 | 1012.5 |
| 20260508073736 | 49 | 0 | 0.0 | 0.0 | 0.00 | 0.00 | 0.00 | 98 | 1012.8 |
| 20260508073234 | 50 | 293 | 0.0 | 0.0 | 0.00 | 0.00 | 0.00 | 98 | 1012.8 |
| 20260508072732 | 50 | 0 | 0.0 | 0.0 | 0.00 | 0.00 | 0.00 | 98 | 1012.5 |
| 20260508072231 | 50 | 0 | 0.0 | 0.0 | 0.00 | 0.00 | 0.00 | 98 | 1012.5 |
| 20260508071228 | 50 | 293 | 0.0 | 0.0 | 0.00 | 0.00 | 0.00 | 98 | 1012.5 |
| 20260508070726 | 50 | 0 | 0.0 | 0.0 | 0.00 | 0.00 | 0.00 | 98 | 1012.5 |
| 20260508070225 | 50 | 0 | 0.0 | 0.0 | 0.00 | 0.00 | 0.00 | 98 | 1012.5 |
| 20260508065723 | 50 | 338 | 0.0 | 0.0 | 0.00 | 0.00 | 0.00 | 98 | 1012.5 |
| 20260508065221 | 50 | 0 | 0.0 | 0.0 | 0.00 | 0.00 | 0.00 | 98 | 1012.5 |
| 20260508063718 | 51 | 338 | 0.0 | 0.0 | 0.00 | 0.00 | 0.00 | 98 | 1012.5 |
| 20260508063216 | 51 | 293 | 0.0 | 0.0 | 0.00 | 0.00 | 0.00 | 98 | 1012.5 |
| 20260508062714 | 50 | 0 | 0.0 | 0.0 | 0.00 | 0.00 | 0.00 | 98 | 1012.5 |
| 20260508062213 | 50 | 293 | 0.0 | 0.0 | 0.00 | 0.00 | 0.00 | 98 | 1012.5 |
| 20260508061711 | 51 | 0 | 0.0 | 0.0 | 0.00 | 0.00 | 0.00 | 98 | 1012.5 |
| 20260508061209 | 51 | 23 | 0.0 | 0.0 | 0.00 | 0.00 | 0.00 | 98 | 1012.5 |
| 20260508060708 | 51 | 248 | 0.0 | 0.0 | 0.00 | 0.00 | 0.00 | 98 | 1012.8 |
| 20260508055705 | 51 | 338 | 0.0 | 0.0 | 0.00 | 0.00 | 0.00 | 98 | 1012.5 |
| 20260508055203 | 52 | 338 | 0.0 | 0.0 | 0.00 | 0.00 | 0.00 | 98 | 1012.5 |
| 20260508054701 | 52 | 248 | 0.0 | 0.0 | 0.00 | 0.00 | 0.00 | 98 | 1012.5 |
| 20260508054200 | 52 | 248 | 0.0 | 0.0 | 0.00 | 0.00 | 0.00 | 98 | 1012.8 |
| 20260508053658 | 52 | 293 | 0.0 | 0.0 | 0.00 | 0.00 | 0.00 | 97 | 1012.5 |
| 20260508052656 | 52 | 315 | 0.0 | 0.0 | 0.00 | 0.00 | 0.00 | 97 | 1012.5 |
| 20260508052155 | 53 | 293 | 0.0 | 0.0 | 0.00 | 0.00 | 0.00 | 97 | 1012.1 |
| 20260508051653 | 53 | 45 | 0.0 | 0.0 | 0.00 | 0.00 | 0.00 | 97 | 1012.1 |
| 20260508051151 | 53 | 0 | 0.0 | 0.0 | 0.00 | 0.00 | 0.00 | 97 | 1012.5 |
| 20260508050650 | 53 | 270 | 0.0 | 0.0 | 0.00 | 0.00 | 0.00 | 97 | 1012.5 |
| 20260508050148 | 54 | 248 | 0.0 | 0.0 | 0.00 | 0.00 | 0.00 | 97 | 1012.1 |
| 20260508045647 | 54 | 203 | 0.0 | 0.0 | 0.00 | 0.00 | 0.00 | 97 | 1012.1 |
| 20260508045144 | 54 | 270 | 0.0 | 0.0 | 0.00 | 0.00 | 0.00 | 97 | 1012.1 |
| 20260508044643 | 54 | 45 | 0.0 | 0.0 | 0.00 | 0.00 | 0.00 | 97 | 1012.1 |
| 20260508044141 | 54 | 248 | 0.0 | 0.0 | 0.00 | 0.00 | 0.00 | 97 | 1012.1 |
| 20260508043640 | 54 | 315 | 0.0 | 0.0 | 0.00 | 0.00 | 0.00 | 97 | 1012.1 |
| 20260508043138 | 55 | 248 | 0.0 | 0.0 | 0.00 | 0.00 | 0.00 | 97 | 1011.8 |
| 20260508042636 | 55 | 225 | 0.0 | 0.0 | 0.00 | 0.00 | 0.00 | 97 | 1011.8 |
| 20260508042135 | 55 | 23 | 0.0 | 0.0 | 0.00 | 0.00 | 0.00 | 97 | 1011.8 |
| 20260508041633 | 55 | 338 | 0.0 | 0.0 | 0.00 | 0.00 | 0.00 | 97 | 1011.8 |
| 20260508041131 | 55 | 270 | 0.0 | 0.0 | 0.00 | 0.00 | 0.00 | 97 | 1012.1 |
| 20260508040629 | 55 | 225 | 0.0 | 0.0 | 0.00 | 0.00 | 0.00 | 97 | 1011.8 |
| 20260508040128 | 55 | 270 | 0.0 | 0.0 | 0.00 | 0.00 | 0.00 | 97 | 1012.1 |
| 20260508035626 | 56 | 315 | 0.0 | 0.0 | 0.00 | 0.88 | 0.88 | 97 | 1012.1 |
| 20260508035124 | 56 | 338 | 0.0 | 0.0 | 0.00 | 0.88 | 0.88 | 97 | 1012.1 |
| 20260508034622 | 56 | 248 | 0.0 | 0.0 | 0.00 | 0.88 | 0.88 | 97 | 1011.8 |
| 20260508034121 | 56 | 270 | 0.0 | 0.0 | 0.00 | 0.88 | 0.88 | 97 | 1011.8 |
| 20260508033619 | 56 | 315 | 0.0 | 0.0 | 0.00 | 0.88 | 0.88 | 96 | 1011.8 |
| 20260508033117 | 56 | 23 | 0.0 | 0.0 | 0.00 | 0.88 | 0.88 | 96 | 1011.8 |
| 20260508032616 | 57 | 23 | 0.0 | 0.0 | 0.00 | 0.88 | 0.88 | 96 | 1011.8 |
| 20260508032114 | 57 | 23 | 0.0 | 0.0 | 0.00 | 0.88 | 0.88 | 96 | 1011.8 |
| 20260508031612 | 56 | 338 | 0.0 | 0.0 | 0.00 | 0.88 | 0.88 | 96 | 1011.8 |
| 20260508031110 | 57 | 248 | 0.0 | 0.0 | 0.00 | 0.88 | 0.88 | 96 | 1011.8 |
| 20260508030608 | 57 | 338 | 0.0 | 0.0 | 0.00 | 0.88 | 0.88 | 96 | 1011.8 |
| 20260508030107 | 57 | 45 | 0.0 | 0.0 | 0.00 | 0.88 | 0.88 | 96 | 1011.5 |
| 20260508025605 | 57 | 45 | 0.0 | 0.0 | 0.00 | 0.88 | 0.88 | 96 | 1011.8 |
| 20260508025103 | 58 | 0 | 0.0 | 0.0 | 0.00 | 0.88 | 0.88 | 96 | 1011.5 |
| 20260508024602 | 58 | 68 | 0.0 | 0.0 | 0.00 | 0.88 | 0.88 | 96 | 1011.5 |
| 20260508024100 | 58 | 45 | 0.0 | 0.0 | 0.00 | 0.88 | 0.88 | 96 | 1011.5 |
| 20260508023559 | 58 | 23 | 0.0 | 0.0 | 0.00 | 0.88 | 0.88 | 95 | 1011.8 |
| 20260508023057 | 58 | 0 | 0.0 | 0.0 | 0.00 | 0.88 | 0.88 | 95 | 1011.5 |
| 20260508022555 | 58 | 45 | 0.0 | 0.0 | 0.00 | 0.88 | 0.88 | 95 | 1011.5 |
| 20260508022053 | 58 | 23 | 0.0 | 0.0 | 0.00 | 0.88 | 0.88 | 95 | 1011.5 |
| 20260508021551 | 58 | 0 | 0.0 | 2.0 | 0.00 | 0.88 | 0.88 | 95 | 1011.1 |
| 20260508021049 | 58 | 270 | 0.0 | 0.0 | 0.00 | 0.88 | 0.88 | 95 | 1011.1 |
| 20260508020547 | 59 | 338 | 0.0 | 0.0 | 0.00 | 0.88 | 0.88 | 95 | 1011.1 |
| 20260508020046 | 59 | 338 | 0.0 | 1.0 | 0.00 | 0.88 | 0.88 | 95 | 1011.1 |
| 20260508015544 | 59 | 23 | 0.0 | 0.0 | 0.00 | 0.88 | 0.88 | 95 | 1011.1 |
| 20260508015042 | 59 | 45 | 0.0 | 0.0 | 0.00 | 0.88 | 0.88 | 95 | 1011.1 |
| 20260508014540 | 59 | 23 | 0.0 | 1.0 | 0.00 | 0.88 | 0.88 | 96 | 1011.1 |
| 20260508014038 | 59 | 338 | 0.0 | 0.0 | 0.00 | 0.88 | 0.88 | 95 | 1010.8 |
| 20260508013536 | 59 | 315 | 0.0 | 0.0 | 0.00 | 0.88 | 0.88 | 95 | 1010.4 |
| 20260508013034 | 59 | 338 | 0.0 | 1.0 | 0.00 | 0.88 | 0.88 | 95 | 1010.4 |
| 20260508012533 | 59 | 338 | 0.0 | 1.0 | 0.00 | 0.88 | 0.88 | 95 | 1010.4 |
| 20260508012032 | 59 | 90 | 0.0 | 0.0 | 0.00 | 0.88 | 0.88 | 95 | 1010.1 |
| 20260508011529 | 59 | 338 | 0.0 | 0.0 | 0.00 | 0.88 | 0.88 | 95 | 1010.1 |
| 20260508011028 | 59 | 338 | 0.0 | 0.0 | 0.00 | 0.88 | 0.88 | 95 | 1010.1 |
| 20260508010526 | 59 | 0 | 0.0 | 0.0 | 0.00 | 0.88 | 0.88 | 95 | 1009.8 |
| 20260508010024 | 59 | 45 | 0.0 | 0.0 | 0.00 | 0.88 | 0.88 | 95 | 1009.8 |
| 20260508005522 | 59 | 90 | 0.0 | 0.0 | 0.00 | 0.88 | 0.88 | 95 | 1009.8 |
| 20260508005021 | 60 | 315 | 2.0 | 4.0 | 0.00 | 0.88 | 0.88 | 95 | 1009.8 |
| 20260508004519 | 60 | 90 | 0.0 | 0.0 | 0.00 | 0.88 | 0.88 | 95 | 1009.4 |
| 20260508004017 | 60 | 68 | 2.0 | 3.0 | 0.00 | 0.88 | 0.88 | 95 | 1009.4 |
| 20260508003515 | 60 | 23 | 0.0 | 0.0 | 0.00 | 0.88 | 0.88 | 95 | 1009.4 |
| 20260508003013 | 60 | 23 | 0.0 | 0.0 | 0.00 | 0.88 | 0.88 | 95 | 1009.8 |
| 20260508002509 | 61 | 338 | 0.0 | 0.0 | 0.00 | 0.88 | 0.88 | 95 | 1009.4 |
| 20260508002007 | 61 | 23 | 2.0 | 3.0 | 0.00 | 0.88 | 0.88 | 95 | 1009.1 |
| 20260508001505 | 61 | 23 | 2.0 | 2.0 | 0.00 | 0.88 | 0.88 | 95 | 1009.1 |
| 20260508001003 | 61 | 23 | 0.0 | 0.0 | 0.00 | 0.88 | 0.88 | 94 | 1009.1 |
| 20260508000501 | 61 | 23 | 0.0 | 0.0 | 0.00 | 0.88 | 0.88 | 94 | 1008.8 |
| 20260507235959 | 61 | 270 | 0.0 | 1.0 | 0.01 | 0.88 | 0.88 | 94 | 1008.8 |
| 20260507235457 | 61 | 338 | 2.0 | 3.0 | 0.01 | 0.88 | 0.88 | 94 | 1008.4 |
| 20260507234955 | 61 | 0 | 4.0 | 5.0 | 0.01 | 0.88 | 0.88 | 94 | 1008.4 |
| 20260507234453 | 62 | 23 | 0.0 | 0.0 | 0.01 | 0.88 | 0.88 | 94 | 1008.4 |
| 20260507233951 | 62 | 45 | 2.0 | 3.0 | 0.01 | 0.88 | 0.88 | 94 | 1008.4 |
| 20260507233450 | 62 | 23 | 2.0 | 4.0 | 0.01 | 0.88 | 0.88 | 94 | 1008.1 |
| 20260507232948 | 62 | 0 | 3.0 | 5.0 | 0.01 | 0.88 | 0.88 | 93 | 1007.4 |
| 20260507232446 | 62 | 23 | 3.0 | 5.0 | 0.01 | 0.88 | 0.88 | 93 | 1007.1 |
| 20260507231944 | 63 | 23 | 8.0 | 10.0 | 0.00 | 0.87 | 0.87 | 92 | 1007.4 |
| 20260507231442 | 64 | 45 | 10.0 | 13.0 | 0.00 | 0.87 | 0.87 | 91 | 1007.1 |
| 20260507230940 | 64 | 45 | 5.0 | 7.0 | 0.00 | 0.87 | 0.87 | 89 | 1006.7 |
| 20260507230439 | 65 | 23 | 2.0 | 5.0 | 0.00 | 0.87 | 0.87 | 88 | 1007.1 |
| 20260507225937 | 65 | 23 | 6.0 | 10.0 | 0.00 | 0.87 | 0.87 | 87 | 1006.7 |
| 20260507225435 | 66 | 338 | 9.0 | 10.0 | 0.00 | 0.87 | 0.87 | 86 | 1006.7 |
| 20260507224933 | 67 | 68 | 5.0 | 7.0 | 0.00 | 0.87 | 0.87 | 84 | 1006.7 |
| 20260507224431 | 71 | 45 | 9.0 | 13.0 | 0.00 | 0.87 | 0.87 | 76 | 1007.1 |
| 20260507223930 | 77 | 45 | 0.0 | 0.0 | 0.00 | 0.87 | 0.87 | 72 | 1006.0 |
| 20260507223428 | 77 | 225 | 0.0 | 0.0 | 0.00 | 0.87 | 0.87 | 70 | 1005.7 |
| 20260507222926 | 77 | 203 | 0.0 | 0.0 | 0.00 | 0.87 | 0.87 | 69 | 1005.4 |
| 20260507222425 | 78 | 270 | 0.0 | 0.0 | 0.00 | 0.87 | 0.87 | 67 | 1005.4 |
| 20260507221923 | 81 | 225 | 0.0 | 0.0 | 0.00 | 0.87 | 0.87 | 64 | 1005.4 |
| 20260507221421 | 82 | 158 | 0.0 | 0.0 | 0.00 | 0.87 | 0.87 | 64 | 1005.4 |
| 20260507220919 | 81 | 158 | 0.0 | 0.0 | 0.00 | 0.87 | 0.87 | 63 | 1005.7 |
| 20260507220417 | 81 | 293 | 0.0 | 2.0 | 0.00 | 0.87 | 0.87 | 63 | 1005.4 |
| 20260507215915 | 80 | 68 | 0.0 | 0.0 | 0.00 | 0.87 | 0.87 | 66 | 1005.4 |
| 20260507215413 | 80 | 203 | 0.0 | 1.0 | 0.00 | 0.87 | 0.87 | 64 | 1005.4 |
| 20260507214912 | 78 | 203 | 1.0 | 5.0 | 0.00 | 0.87 | 0.87 | 66 | 1005.4 |
| 20260507214410 | 78 | 203 | 1.0 | 5.0 | 0.00 | 0.87 | 0.87 | 66 | 1005.4 |
| 20260507213908 | 79 | 270 | 1.0 | 3.0 | 0.00 | 0.87 | 0.87 | 64 | 1005.0 |
| 20260507213406 | 81 | 248 | 0.0 | 0.0 | 0.00 | 0.87 | 0.87 | 64 | 1005.0 |
| 20260507212905 | 80 | 225 | 2.0 | 4.0 | 0.00 | 0.87 | 0.87 | 64 | 1005.4 |
| 20260507212403 | 80 | 225 | 2.0 | 4.0 | 0.00 | 0.87 | 0.87 | 64 | 1005.4 |
| 20260507212353 | 80 | 225 | 2.0 | 4.0 | 0.00 | 0.87 | 0.00 | 64 | 1005.4 |
| 20260507212320 | 80 | 135 | 3.0 | 4.0 | 0.00 | 0.87 | 0.87 | 64 | 1005.4 |
| 20260507211851 | 81 | 203 | 1.0 | 4.0 | 0.00 | 0.87 | 0.00 | 64 | 1005.4 |
| 20260507211350 | 80 | 248 | 1.0 | 2.0 | 0.00 | 0.87 | 0.00 | 65 | 1005.0 |
| 20260507210848 | 78 | 225 | 5.0 | 6.0 | 0.00 | 0.87 | 0.00 | 68 | 1005.4 |
| 20260507210713 | 78 | 225 | 1.0 | 2.0 | 0.00 | 0.87 | 0.00 | 68 | 1005.0 |
| 20260507210347 | 79 | 158 | 2.0 | 3.0 | 0.00 | 0.87 | 0.00 | 67 | 1005.0 |
| 20260507210211 | 80 | 225 | 3.0 | 5.0 | 0.00 | 0.87 | 0.00 | 66 | 1005.0 |
| 20260507205845 | 79 | 248 | 3.0 | 7.0 | 0.00 | 0.87 | 0.00 | 68 | 1005.7 |
| 20260507205344 | 79 | 203 | 0.0 | 2.0 | 0.00 | 0.87 | 0.00 | 67 | 1005.4 |
| 20260507204842 | 79 | 203 | 0.0 | 2.0 | 0.00 | 0.87 | 0.00 | 67 | 1005.4 |
| 20260507204340 | 79 | 203 | 0.0 | 0.0 | 0.00 | 0.87 | 0.00 | 66 | 1005.4 |
| 20260507203838 | 80 | 180 | 0.0 | 1.0 | 0.00 | 0.87 | 0.00 | 64 | 1005.4 |
| 20260507203337 | 80 | 225 | 2.0 | 4.0 | 0.00 | 0.87 | 0.00 | 67 | 1005.0 |
| 20260507202835 | 80 | 225 | 2.0 | 4.0 | 0.00 | 0.87 | 0.00 | 67 | 1005.0 |
| 20260507202333 | 80 | 225 | 0.0 | 2.0 | 0.00 | 0.87 | 0.00 | 66 | 1005.0 |
| 20260507201832 | 78 | 225 | 0.0 | 0.0 | 0.00 | 0.87 | 0.00 | 68 | 1005.4 |
| 20260507201330 | 79 | 270 | 0.0 | 0.0 | 0.00 | 0.87 | 0.00 | 66 | 1005.4 |
| 20260507200828 | 83 | 270 | 0.0 | 2.0 | 0.00 | 0.87 | 0.00 | 60 | 1005.4 |
| 20260507200327 | 81 | 248 | 3.0 | 5.0 | 0.00 | 0.87 | 0.00 | 63 | 1005.7 |
| 20260507195825 | 80 | 203 | 0.0 | 2.0 | 0.00 | 0.87 | 0.00 | 63 | 1005.7 |
| 20260507195323 | 80 | 338 | 2.0 | 6.0 | 0.00 | 0.87 | 0.00 | 63 | 1005.7 |
| 20260507194821 | 80 | 135 | 4.0 | 5.0 | 0.00 | 0.87 | 0.00 | 62 | 1005.7 |
| 20260507194320 | 80 | 315 | 0.0 | 1.0 | 0.00 | 0.87 | 0.00 | 66 | 1005.7 |
| 20260507193818 | 79 | 293 | 2.0 | 5.0 | 0.00 | 0.87 | 0.00 | 65 | 1005.7 |
| 20260507193316 | 80 | 225 | 0.0 | 1.0 | 0.00 | 0.87 | 0.00 | 66 | 1005.7 |
| 20260507192815 | 78 | 135 | 3.0 | 5.0 | 0.00 | 0.87 | 0.00 | 66 | 1006.0 |
| 20260507192314 | 79 | 203 | 6.0 | 9.0 | 0.00 | 0.87 | 0.00 | 64 | 1006.4 |
| 20260507191811 | 79 | 135 | 0.0 | 2.0 | 0.00 | 0.87 | 0.00 | 64 | 1006.0 |
| 20260507191310 | 79 | 338 | 0.0 | 1.0 | 0.00 | 0.87 | 0.00 | 68 | 1006.4 |
| 20260507190808 | 77 | 248 | 0.0 | 2.0 | 0.00 | 0.87 | 0.00 | 69 | 1006.4 |
| 20260507190306 | 78 | 158 | 0.0 | 1.0 | 0.00 | 0.87 | 0.00 | 68 | 1006.4 |
| 20260507185805 | 79 | 180 | 2.0 | 5.0 | 0.00 | 0.87 | 0.00 | 66 | 1006.0 |
| 20260507185305 | 79 | 180 | 0.0 | 0.0 | 0.00 | 0.87 | 0.00 | 66 | 1006.4 |
| 20260507184801 | 79 | 180 | 0.0 | 0.0 | 0.00 | 0.87 | 0.00 | 66 | 1006.4 |
| 20260507184300 | 80 | 23 | 0.0 | 2.0 | 0.00 | 0.87 | 0.00 | 67 | 1006.4 |
| 20260507183758 | 80 | 135 | 0.0 | 0.0 | 0.00 | 0.87 | 0.00 | 69 | 1006.4 |
| 20260507183256 | 78 | 270 | 0.0 | 1.0 | 0.00 | 0.87 | 0.00 | 71 | 1006.0 |
| 20260507182755 | 78 | 248 | 4.0 | 5.0 | 0.00 | 0.87 | 0.00 | 68 | 1006.0 |
| 20260507182253 | 79 | 45 | 0.0 | 0.0 | 0.00 | 0.87 | 0.00 | 70 | 1006.4 |
| 20260507181751 | 77 | 68 | 1.0 | 2.0 | 0.00 | 0.87 | 0.00 | 70 | 1006.7 |
| 20260507181249 | 77 | 225 | 1.0 | 2.0 | 0.00 | 0.87 | 0.00 | 69 | 1006.4 |
| 20260507180748 | 77 | 135 | 0.0 | 2.0 | 0.00 | 0.87 | 0.00 | 71 | 1006.0 |
| 20260507180246 | 76 | 113 | 4.0 | 7.0 | 0.00 | 0.87 | 0.00 | 72 | 1006.4 |
| 20260507175744 | 78 | 203 | 0.0 | 0.0 | 0.00 | 0.87 | 0.00 | 75 | 1006.4 |
| 20260507175242 | 77 | 158 | 0.0 | 2.0 | 0.00 | 0.87 | 0.00 | 75 | 1006.4 |
| 20260507174740 | 76 | 225 | 0.0 | 2.0 | 0.00 | 0.87 | 0.00 | 75 | 1006.7 |
| 20260507174238 | 77 | 248 | 1.0 | 2.0 | 0.00 | 0.87 | 0.00 | 75 | 1006.4 |
| 20260507173737 | 78 | 248 | 0.0 | 0.0 | 0.00 | 0.87 | 0.00 | 78 | 1006.7 |
| 20260507173235 | 76 | 180 | 0.0 | 0.0 | 0.00 | 0.87 | 0.00 | 76 | 1007.1 |
| 20260507172733 | 76 | 203 | 0.0 | 0.0 | 0.00 | 0.87 | 0.00 | 81 | 1007.1 |
| 20260507172232 | 76 | 270 | 0.0 | 1.0 | 0.00 | 0.87 | 0.00 | 81 | 1007.4 |
| 20260507171730 | 73 | 225 | 0.0 | 2.0 | 0.00 | 0.87 | 0.00 | 82 | 1007.4 |
| 20260507171228 | 73 | 248 | 4.0 | 5.0 | 0.00 | 0.87 | 0.00 | 81 | 1007.1 |
| 20260507170726 | 73 | 270 | 2.0 | 4.0 | 0.00 | 0.87 | 0.00 | 81 | 1007.1 |
| 20260507170225 | 73 | 158 | 0.0 | 1.0 | 0.00 | 0.87 | 0.00 | 82 | 1006.7 |
| 20260507165723 | 74 | 293 | 0.0 | 0.0 | 0.00 | 0.87 | 0.00 | 84 | 1006.7 |
| 20260507165221 | 72 | 293 | 0.0 | 0.0 | 0.00 | 0.87 | 0.00 | 84 | 1007.1 |
| 20260507164719 | 72 | 68 | 0.0 | 0.0 | 0.00 | 0.87 | 0.00 | 85 | 1007.4 |
| 20260507164218 | 72 | 203 | 0.0 | 0.0 | 0.00 | 0.87 | 0.00 | 86 | 1007.4 |
| 20260507163716 | 72 | 270 | 0.0 | 0.0 | 0.00 | 0.87 | 0.00 | 86 | 1007.4 |
| 20260507163215 | 71 | 225 | 0.0 | 1.0 | 0.00 | 0.87 | 0.00 | 86 | 1007.4 |
| 20260507162713 | 71 | 248 | 0.0 | 1.0 | 0.00 | 0.87 | 0.00 | 86 | 1007.4 |
| 20260507162211 | 72 | 270 | 0.0 | 0.0 | 0.00 | 0.87 | 0.00 | 88 | 1007.4 |
| 20260507161709 | 71 | 225 | 1.0 | 2.0 | 0.00 | 0.87 | 0.00 | 93 | 1007.4 |
| 20260507161208 | 71 | 225 | 1.0 | 2.0 | 0.00 | 0.87 | 0.00 | 93 | 1007.7 |
| 20260507160706 | 71 | 180 | 1.0 | 2.0 | 0.00 | 0.87 | 0.00 | 96 | 1008.1 |
| 20260507160204 | 70 | 23 | 0.0 | 0.0 | 0.00 | 0.87 | 0.00 | 97 | 1008.1 |
| 20260507155703 | 70 | 293 | 0.0 | 0.0 | 0.00 | 0.87 | 0.00 | 97 | 1007.7 |
| 20260507155200 | 68 | 248 | 0.0 | 0.0 | 0.00 | 0.87 | 0.00 | 98 | 1007.7 |